sensor_id;sensor_type;location;lat;lon;timestamp;temperature;humidity
12111;DHT22;6119;52.372;8.990;2023-04-25T00:00:30;8.50;99.90
12111;DHT22;6119;52.372;8.990;2023-04-25T00:03:17;8.50;99.90
12111;DHT22;6119;52.372;8.990;2023-04-25T00:06:05;8.40;99.90
12111;DHT22;6119;52.372;8.990;2023-04-25T00:08:51;8.50;99.90
12111;DHT22;6119;52.372;8.990;2023-04-25T00:11:38;8.40;99.90
12111;DHT22;6119;52.372;8.990;2023-04-25T00:14:24;8.40;99.90
12111;DHT22;6119;52.372;8.990;2023-04-25T00:17:14;8.40;99.90
12111;DHT22;6119;52.372;8.990;2023-04-25T00:20:01;8.30;99.90
12111;DHT22;6119;52.372;8.990;2023-04-25T00:22:50;8.30;99.90
12111;DHT22;6119;52.372;8.990;2023-04-25T00:25:37;8.40;99.90
12111;DHT22;6119;52.372;8.990;2023-04-25T00:28:24;8.30;99.90
12111;DHT22;6119;52.372;8.990;2023-04-25T00:31:10;8.30;99.90
12111;DHT22;6119;52.372;8.990;2023-04-25T00:33:59;8.40;99.90
12111;DHT22;6119;52.372;8.990;2023-04-25T00:36:45;8.30;99.90
12111;DHT22;6119;52.372;8.990;2023-04-25T00:39:32;8.30;99.90
12111;DHT22;6119;52.372;8.990;2023-04-25T00:42:19;8.40;99.90
12111;DHT22;6119;52.372;8.990;2023-04-25T00:45:06;8.20;99.90
12111;DHT22;6119;52.372;8.990;2023-04-25T00:47:54;8.20;99.90
12111;DHT22;6119;52.372;8.990;2023-04-25T00:50:51;8.20;99.90
12111;DHT22;6119;52.372;8.990;2023-04-25T00:53:37;8.20;99.90
12111;DHT22;6119;52.372;8.990;2023-04-25T00:56:24;8.20;99.90
12111;DHT22;6119;52.372;8.990;2023-04-25T00:59:11;8.20;99.90
12111;DHT22;6119;52.372;8.990;2023-04-25T01:01:58;8.10;99.90
12111;DHT22;6119;52.372;8.990;2023-04-25T01:04:45;8.10;99.90
12111;DHT22;6119;52.372;8.990;2023-04-25T01:07:34;8.10;99.90
12111;DHT22;6119;52.372;8.990;2023-04-25T01:10:20;8.20;99.90
12111;DHT22;6119;52.372;8.990;2023-04-25T01:13:07;8.20;99.90
12111;DHT22;6119;52.372;8.990;2023-04-25T01:15:54;8.10;99.90
12111;DHT22;6119;52.372;8.990;2023-04-25T01:18:41;8.10;99.90
12111;DHT22;6119;52.372;8.990;2023-04-25T01:21:30;8.10;99.90
12111;DHT22;6119;52.372;8.990;2023-04-25T01:24:17;7.90;99.90
12111;DHT22;6119;52.372;8.990;2023-04-25T01:27:04;8.10;99.90
12111;DHT22;6119;52.372;8.990;2023-04-25T01:29:51;7.90;99.90
12111;DHT22;6119;52.372;8.990;2023-04-25T01:32:38;7.80;99.90
12111;DHT22;6119;52.372;8.990;2023-04-25T01:35:25;7.80;99.90
12111;DHT22;6119;52.372;8.990;2023-04-25T01:38:13;7.70;99.90
12111;DHT22;6119;52.372;8.990;2023-04-25T01:41:00;7.80;99.90
12111;DHT22;6119;52.372;8.990;2023-04-25T01:43:47;7.80;99.90
12111;DHT22;6119;52.372;8.990;2023-04-25T01:46:35;7.90;99.90
12111;DHT22;6119;52.372;8.990;2023-04-25T01:49:21;7.80;99.90
12111;DHT22;6119;52.372;8.990;2023-04-25T01:52:09;7.90;99.90
12111;DHT22;6119;52.372;8.990;2023-04-25T01:54:57;7.90;99.90
12111;DHT22;6119;52.372;8.990;2023-04-25T01:57:45;7.80;99.90
12111;DHT22;6119;52.372;8.990;2023-04-25T02:00:32;7.60;99.90
12111;DHT22;6119;52.372;8.990;2023-04-25T02:03:18;7.70;99.90
12111;DHT22;6119;52.372;8.990;2023-04-25T02:06:05;7.80;99.90
12111;DHT22;6119;52.372;8.990;2023-04-25T02:08:52;7.80;99.90
12111;DHT22;6119;52.372;8.990;2023-04-25T02:11:40;7.80;99.90
12111;DHT22;6119;52.372;8.990;2023-04-25T02:14:26;7.70;99.90
12111;DHT22;6119;52.372;8.990;2023-04-25T02:17:13;7.80;99.90
12111;DHT22;6119;52.372;8.990;2023-04-25T02:20:01;7.80;99.90
12111;DHT22;6119;52.372;8.990;2023-04-25T02:22:48;7.70;99.90
12111;DHT22;6119;52.372;8.990;2023-04-25T02:25:35;7.70;99.90
12111;DHT22;6119;52.372;8.990;2023-04-25T02:28:23;7.80;99.90
12111;DHT22;6119;52.372;8.990;2023-04-25T02:31:10;7.90;99.90
12111;DHT22;6119;52.372;8.990;2023-04-25T02:33:56;7.60;99.90
12111;DHT22;6119;52.372;8.990;2023-04-25T02:36:43;7.50;99.90
12111;DHT22;6119;52.372;8.990;2023-04-25T02:39:29;7.70;99.90
12111;DHT22;6119;52.372;8.990;2023-04-25T02:42:16;7.60;99.90
12111;DHT22;6119;52.372;8.990;2023-04-25T02:45:05;7.80;99.90
12111;DHT22;6119;52.372;8.990;2023-04-25T02:47:51;7.50;99.90
12111;DHT22;6119;52.372;8.990;2023-04-25T02:50:38;7.60;99.90
12111;DHT22;6119;52.372;8.990;2023-04-25T02:53:24;7.70;99.90
12111;DHT22;6119;52.372;8.990;2023-04-25T02:56:11;7.70;99.90
12111;DHT22;6119;52.372;8.990;2023-04-25T02:58:57;7.60;99.90
12111;DHT22;6119;52.372;8.990;2023-04-25T03:01:45;7.70;99.90
12111;DHT22;6119;52.372;8.990;2023-04-25T03:04:32;7.60;99.90
12111;DHT22;6119;52.372;8.990;2023-04-25T03:07:19;7.60;99.90
12111;DHT22;6119;52.372;8.990;2023-04-25T03:10:07;7.80;99.90
12111;DHT22;6119;52.372;8.990;2023-04-25T03:12:53;7.80;99.90
12111;DHT22;6119;52.372;8.990;2023-04-25T03:15:40;7.70;99.90
12111;DHT22;6119;52.372;8.990;2023-04-25T03:18:27;7.80;99.90
12111;DHT22;6119;52.372;8.990;2023-04-25T03:21:14;7.60;99.90
12111;DHT22;6119;52.372;8.990;2023-04-25T03:24:01;7.60;99.90
12111;DHT22;6119;52.372;8.990;2023-04-25T03:26:48;7.70;99.90
12111;DHT22;6119;52.372;8.990;2023-04-25T03:29:35;7.80;99.90
12111;DHT22;6119;52.372;8.990;2023-04-25T03:32:21;7.80;99.90
12111;DHT22;6119;52.372;8.990;2023-04-25T03:35:09;7.70;99.90
12111;DHT22;6119;52.372;8.990;2023-04-25T03:37:55;7.60;99.90
12111;DHT22;6119;52.372;8.990;2023-04-25T03:40:42;7.60;99.90
12111;DHT22;6119;52.372;8.990;2023-04-25T03:43:28;7.50;99.90
12111;DHT22;6119;52.372;8.990;2023-04-25T03:46:15;7.70;99.90
12111;DHT22;6119;52.372;8.990;2023-04-25T03:49:02;7.70;99.90
12111;DHT22;6119;52.372;8.990;2023-04-25T03:51:50;7.40;99.90
12111;DHT22;6119;52.372;8.990;2023-04-25T03:54:36;7.50;99.90
12111;DHT22;6119;52.372;8.990;2023-04-25T03:57:23;7.60;99.90
12111;DHT22;6119;52.372;8.990;2023-04-25T04:00:10;7.60;99.90
12111;DHT22;6119;52.372;8.990;2023-04-25T04:02:57;7.60;99.90
12111;DHT22;6119;52.372;8.990;2023-04-25T04:05:44;7.60;99.90
12111;DHT22;6119;52.372;8.990;2023-04-25T04:08:33;7.60;99.90
12111;DHT22;6119;52.372;8.990;2023-04-25T04:11:20;7.70;99.90
12111;DHT22;6119;52.372;8.990;2023-04-25T04:14:06;7.60;99.90
12111;DHT22;6119;52.372;8.990;2023-04-25T04:16:53;7.60;99.90
12111;DHT22;6119;52.372;8.990;2023-04-25T04:19:39;7.50;99.90
12111;DHT22;6119;52.372;8.990;2023-04-25T04:22:26;7.50;99.90
12111;DHT22;6119;52.372;8.990;2023-04-25T04:25:13;7.50;99.90
12111;DHT22;6119;52.372;8.990;2023-04-25T04:28:00;7.50;99.90
12111;DHT22;6119;52.372;8.990;2023-04-25T04:30:46;7.60;99.90
12111;DHT22;6119;52.372;8.990;2023-04-25T04:33:33;7.60;99.90
12111;DHT22;6119;52.372;8.990;2023-04-25T04:36:19;7.50;99.90
12111;DHT22;6119;52.372;8.990;2023-04-25T04:39:07;7.50;99.90
12111;DHT22;6119;52.372;8.990;2023-04-25T04:41:55;7.50;99.90
12111;DHT22;6119;52.372;8.990;2023-04-25T04:44:42;7.40;99.90
12111;DHT22;6119;52.372;8.990;2023-04-25T04:47:30;7.50;99.90
12111;DHT22;6119;52.372;8.990;2023-04-25T04:50:18;7.40;99.90
12111;DHT22;6119;52.372;8.990;2023-04-25T04:53:05;7.40;99.90
12111;DHT22;6119;52.372;8.990;2023-04-25T04:55:51;7.30;99.90
12111;DHT22;6119;52.372;8.990;2023-04-25T04:58:39;7.40;99.90
12111;DHT22;6119;52.372;8.990;2023-04-25T05:01:25;7.30;99.90
12111;DHT22;6119;52.372;8.990;2023-04-25T05:04:12;7.30;99.90
12111;DHT22;6119;52.372;8.990;2023-04-25T05:06:59;7.20;99.90
12111;DHT22;6119;52.372;8.990;2023-04-25T05:09:45;7.30;99.90
12111;DHT22;6119;52.372;8.990;2023-04-25T05:12:32;7.30;99.90
12111;DHT22;6119;52.372;8.990;2023-04-25T05:15:22;7.40;99.90
12111;DHT22;6119;52.372;8.990;2023-04-25T05:18:09;7.40;99.90
12111;DHT22;6119;52.372;8.990;2023-04-25T05:20:56;7.40;99.90
12111;DHT22;6119;52.372;8.990;2023-04-25T05:23:42;7.50;99.90
12111;DHT22;6119;52.372;8.990;2023-04-25T05:26:29;7.50;99.90
12111;DHT22;6119;52.372;8.990;2023-04-25T05:29:16;7.30;99.90
12111;DHT22;6119;52.372;8.990;2023-04-25T05:32:05;7.50;99.90
12111;DHT22;6119;52.372;8.990;2023-04-25T05:34:53;7.50;99.90
12111;DHT22;6119;52.372;8.990;2023-04-25T05:37:40;7.50;99.90
12111;DHT22;6119;52.372;8.990;2023-04-25T05:40:26;7.40;99.90
12111;DHT22;6119;52.372;8.990;2023-04-25T05:43:12;7.40;99.90
12111;DHT22;6119;52.372;8.990;2023-04-25T05:45:59;7.50;99.90
12111;DHT22;6119;52.372;8.990;2023-04-25T05:48:47;7.50;99.90
12111;DHT22;6119;52.372;8.990;2023-04-25T05:51:34;7.50;99.90
12111;DHT22;6119;52.372;8.990;2023-04-25T05:54:20;7.40;99.90
12111;DHT22;6119;52.372;8.990;2023-04-25T05:57:07;7.50;99.90
12111;DHT22;6119;52.372;8.990;2023-04-25T05:59:53;7.60;99.90
12111;DHT22;6119;52.372;8.990;2023-04-25T06:02:40;7.30;99.90
12111;DHT22;6119;52.372;8.990;2023-04-25T06:05:28;7.40;99.90
12111;DHT22;6119;52.372;8.990;2023-04-25T06:08:16;7.50;99.90
12111;DHT22;6119;52.372;8.990;2023-04-25T06:11:03;7.50;99.90
12111;DHT22;6119;52.372;8.990;2023-04-25T06:13:50;7.50;99.90
12111;DHT22;6119;52.372;8.990;2023-04-25T06:16:37;7.50;99.90
12111;DHT22;6119;52.372;8.990;2023-04-25T06:19:23;7.50;99.90
12111;DHT22;6119;52.372;8.990;2023-04-25T06:22:11;7.60;99.90
12111;DHT22;6119;52.372;8.990;2023-04-25T06:24:58;7.60;99.90
12111;DHT22;6119;52.372;8.990;2023-04-25T06:27:45;7.70;99.90
12111;DHT22;6119;52.372;8.990;2023-04-25T06:30:32;7.90;99.90
12111;DHT22;6119;52.372;8.990;2023-04-25T06:33:19;7.70;99.90
12111;DHT22;6119;52.372;8.990;2023-04-25T06:36:07;8.00;99.90
12111;DHT22;6119;52.372;8.990;2023-04-25T06:38:55;8.00;99.90
12111;DHT22;6119;52.372;8.990;2023-04-25T06:41:41;7.80;99.90
12111;DHT22;6119;52.372;8.990;2023-04-25T06:44:28;7.70;99.90
12111;DHT22;6119;52.372;8.990;2023-04-25T06:47:15;7.80;99.90
12111;DHT22;6119;52.372;8.990;2023-04-25T06:50:01;7.90;99.90
12111;DHT22;6119;52.372;8.990;2023-04-25T06:52:48;7.90;99.90
12111;DHT22;6119;52.372;8.990;2023-04-25T06:55:36;8.10;99.90
12111;DHT22;6119;52.372;8.990;2023-04-25T06:58:22;8.10;99.90
12111;DHT22;6119;52.372;8.990;2023-04-25T07:01:09;8.10;99.90
12111;DHT22;6119;52.372;8.990;2023-04-25T07:03:56;8.10;99.90
12111;DHT22;6119;52.372;8.990;2023-04-25T07:06:43;7.80;99.90
12111;DHT22;6119;52.372;8.990;2023-04-25T07:09:30;7.60;99.90
12111;DHT22;6119;52.372;8.990;2023-04-25T07:12:20;7.90;99.90
12111;DHT22;6119;52.372;8.990;2023-04-25T07:15:07;8.00;99.90
12111;DHT22;6119;52.372;8.990;2023-04-25T07:17:55;8.20;99.90
12111;DHT22;6119;52.372;8.990;2023-04-25T07:20:41;8.00;99.90
12111;DHT22;6119;52.372;8.990;2023-04-25T07:23:28;8.10;99.90
12111;DHT22;6119;52.372;8.990;2023-04-25T07:26:15;7.90;99.90
12111;DHT22;6119;52.372;8.990;2023-04-25T07:29:03;8.00;99.90
12111;DHT22;6119;52.372;8.990;2023-04-25T07:31:49;8.10;99.90
12111;DHT22;6119;52.372;8.990;2023-04-25T07:34:36;8.00;99.90
12111;DHT22;6119;52.372;8.990;2023-04-25T07:37:24;8.20;99.90
12111;DHT22;6119;52.372;8.990;2023-04-25T07:40:11;8.10;99.90
12111;DHT22;6119;52.372;8.990;2023-04-25T07:42:58;8.50;99.90
12111;DHT22;6119;52.372;8.990;2023-04-25T07:45:46;8.40;99.90
12111;DHT22;6119;52.372;8.990;2023-04-25T07:48:33;8.20;99.90
12111;DHT22;6119;52.372;8.990;2023-04-25T07:51:19;8.50;99.90
12111;DHT22;6119;52.372;8.990;2023-04-25T07:54:07;9.00;99.90
12111;DHT22;6119;52.372;8.990;2023-04-25T07:56:53;9.10;99.90
12111;DHT22;6119;52.372;8.990;2023-04-25T07:59:40;8.50;99.90
12111;DHT22;6119;52.372;8.990;2023-04-25T08:02:28;8.40;99.90
12111;DHT22;6119;52.372;8.990;2023-04-25T08:05:15;8.50;99.90
12111;DHT22;6119;52.372;8.990;2023-04-25T08:08:06;8.70;99.90
12111;DHT22;6119;52.372;8.990;2023-04-25T08:10:52;8.60;99.90
12111;DHT22;6119;52.372;8.990;2023-04-25T08:13:39;8.70;99.90
12111;DHT22;6119;52.372;8.990;2023-04-25T08:16:25;8.70;99.90
12111;DHT22;6119;52.372;8.990;2023-04-25T08:19:14;8.60;99.90
12111;DHT22;6119;52.372;8.990;2023-04-25T08:22:00;8.60;99.90
12111;DHT22;6119;52.372;8.990;2023-04-25T08:24:47;8.50;99.90
12111;DHT22;6119;52.372;8.990;2023-04-25T08:27:33;8.60;99.90
12111;DHT22;6119;52.372;8.990;2023-04-25T08:30:21;8.60;99.90
12111;DHT22;6119;52.372;8.990;2023-04-25T08:33:07;8.70;99.90
12111;DHT22;6119;52.372;8.990;2023-04-25T08:35:56;8.70;99.90
12111;DHT22;6119;52.372;8.990;2023-04-25T08:38:42;8.90;99.90
12111;DHT22;6119;52.372;8.990;2023-04-25T08:41:30;9.10;99.90
12111;DHT22;6119;52.372;8.990;2023-04-25T08:44:16;9.10;99.90
12111;DHT22;6119;52.372;8.990;2023-04-25T08:47:04;8.90;99.90
12111;DHT22;6119;52.372;8.990;2023-04-25T08:49:53;8.60;99.90
12111;DHT22;6119;52.372;8.990;2023-04-25T08:52:44;8.50;99.90
12111;DHT22;6119;52.372;8.990;2023-04-25T08:55:32;8.30;99.90
12111;DHT22;6119;52.372;8.990;2023-04-25T08:58:18;8.70;99.90
12111;DHT22;6119;52.372;8.990;2023-04-25T09:01:06;9.30;99.90
12111;DHT22;6119;52.372;8.990;2023-04-25T09:03:53;9.70;99.90
12111;DHT22;6119;52.372;8.990;2023-04-25T09:06:43;9.40;99.90
12111;DHT22;6119;52.372;8.990;2023-04-25T09:09:32;9.20;99.90
12111;DHT22;6119;52.372;8.990;2023-04-25T09:12:19;9.70;99.90
12111;DHT22;6119;52.372;8.990;2023-04-25T09:15:08;9.80;99.90
12111;DHT22;6119;52.372;8.990;2023-04-25T09:17:55;9.90;99.90
12111;DHT22;6119;52.372;8.990;2023-04-25T09:20:42;9.90;99.90
12111;DHT22;6119;52.372;8.990;2023-04-25T09:23:39;10.10;99.90
12111;DHT22;6119;52.372;8.990;2023-04-25T09:26:27;9.70;99.90
12111;DHT22;6119;52.372;8.990;2023-04-25T09:29:14;9.70;99.90
12111;DHT22;6119;52.372;8.990;2023-04-25T09:32:16;9.70;99.90
12111;DHT22;6119;52.372;8.990;2023-04-25T09:35:03;9.80;99.90
12111;DHT22;6119;52.372;8.990;2023-04-25T09:37:50;9.70;99.90
12111;DHT22;6119;52.372;8.990;2023-04-25T09:40:40;9.90;99.90
12111;DHT22;6119;52.372;8.990;2023-04-25T09:43:31;9.80;98.50
12111;DHT22;6119;52.372;8.990;2023-04-25T09:46:17;9.70;99.50
12111;DHT22;6119;52.372;8.990;2023-04-25T09:49:07;9.90;99.90
12111;DHT22;6119;52.372;8.990;2023-04-25T09:51:54;9.80;99.90
12111;DHT22;6119;52.372;8.990;2023-04-25T09:54:41;9.70;99.90
12111;DHT22;6119;52.372;8.990;2023-04-25T09:57:28;9.90;99.90
12111;DHT22;6119;52.372;8.990;2023-04-25T10:00:17;10.50;99.90
12111;DHT22;6119;52.372;8.990;2023-04-25T10:03:06;10.60;98.80
12111;DHT22;6119;52.372;8.990;2023-04-25T10:05:53;10.60;99.70
12111;DHT22;6119;52.372;8.990;2023-04-25T10:08:42;10.40;99.90
12111;DHT22;6119;52.372;8.990;2023-04-25T10:11:30;10.20;99.00
12111;DHT22;6119;52.372;8.990;2023-04-25T10:14:18;10.60;99.30
12111;DHT22;6119;52.372;8.990;2023-04-25T10:17:07;10.70;99.90
12111;DHT22;6119;52.372;8.990;2023-04-25T10:19:57;10.60;97.90
12111;DHT22;6119;52.372;8.990;2023-04-25T10:22:46;10.80;98.90
12111;DHT22;6119;52.372;8.990;2023-04-25T10:25:34;10.80;97.80
12111;DHT22;6119;52.372;8.990;2023-04-25T10:28:21;10.80;98.00
12111;DHT22;6119;52.372;8.990;2023-04-25T10:31:08;10.60;97.80
12111;DHT22;6119;52.372;8.990;2023-04-25T10:33:56;10.50;97.90
12111;DHT22;6119;52.372;8.990;2023-04-25T10:36:44;10.20;98.30
12111;DHT22;6119;52.372;8.990;2023-04-25T10:39:35;9.70;99.20
12111;DHT22;6119;52.372;8.990;2023-04-25T10:42:21;9.60;99.50
12111;DHT22;6119;52.372;8.990;2023-04-25T10:45:09;9.70;99.90
12111;DHT22;6119;52.372;8.990;2023-04-25T10:47:55;9.50;99.90
12111;DHT22;6119;52.372;8.990;2023-04-25T10:50:43;10.40;99.90
12111;DHT22;6119;52.372;8.990;2023-04-25T10:53:32;9.80;99.90
12111;DHT22;6119;52.372;8.990;2023-04-25T10:56:19;9.80;99.90
12111;DHT22;6119;52.372;8.990;2023-04-25T10:59:08;9.50;99.90
12111;DHT22;6119;52.372;8.990;2023-04-25T11:01:55;9.50;99.90
12111;DHT22;6119;52.372;8.990;2023-04-25T11:04:42;9.80;99.80
12111;DHT22;6119;52.372;8.990;2023-04-25T11:07:34;10.20;99.90
12111;DHT22;6119;52.372;8.990;2023-04-25T11:10:26;10.70;99.90
12111;DHT22;6119;52.372;8.990;2023-04-25T11:13:12;10.60;98.10
12111;DHT22;6119;52.372;8.990;2023-04-25T11:15:59;10.80;98.40
12111;DHT22;6119;52.372;8.990;2023-04-25T11:18:58;11.20;99.00
12111;DHT22;6119;52.372;8.990;2023-04-25T11:21:45;11.30;97.90
12111;DHT22;6119;52.372;8.990;2023-04-25T11:24:34;11.50;97.80
12111;DHT22;6119;52.372;8.990;2023-04-25T11:27:21;11.30;93.90
12111;DHT22;6119;52.372;8.990;2023-04-25T11:30:11;11.80;96.50
12111;DHT22;6119;52.372;8.990;2023-04-25T11:32:58;12.00;94.80
12111;DHT22;6119;52.372;8.990;2023-04-25T11:35:45;12.10;94.50
12111;DHT22;6119;52.372;8.990;2023-04-25T11:38:32;12.00;94.30
12111;DHT22;6119;52.372;8.990;2023-04-25T11:41:20;12.40;94.80
12111;DHT22;6119;52.372;8.990;2023-04-25T11:44:07;12.10;93.80
12111;DHT22;6119;52.372;8.990;2023-04-25T11:46:55;11.90;95.30
12111;DHT22;6119;52.372;8.990;2023-04-25T11:49:43;11.70;94.50
12111;DHT22;6119;52.372;8.990;2023-04-25T11:52:38;12.10;96.40
12111;DHT22;6119;52.372;8.990;2023-04-25T11:55:24;12.20;96.50
12111;DHT22;6119;52.372;8.990;2023-04-25T11:58:13;12.10;95.70
12111;DHT22;6119;52.372;8.990;2023-04-25T12:01:00;12.20;95.70
12111;DHT22;6119;52.372;8.990;2023-04-25T12:03:48;11.90;95.90
12111;DHT22;6119;52.372;8.990;2023-04-25T12:06:37;13.00;95.80
12111;DHT22;6119;52.372;8.990;2023-04-25T12:09:28;12.70;92.90
12111;DHT22;6119;52.372;8.990;2023-04-25T12:12:16;11.80;93.50
12111;DHT22;6119;52.372;8.990;2023-04-25T12:15:11;11.10;93.90
12111;DHT22;6119;52.372;8.990;2023-04-25T12:18:02;11.30;95.20
12111;DHT22;6119;52.372;8.990;2023-04-25T12:20:49;11.10;95.70
12111;DHT22;6119;52.372;8.990;2023-04-25T12:23:38;10.90;95.30
12111;DHT22;6119;52.372;8.990;2023-04-25T12:26:46;10.70;99.10
12111;DHT22;6119;52.372;8.990;2023-04-25T12:29:33;10.60;99.90
12111;DHT22;6119;52.372;8.990;2023-04-25T12:32:35;10.50;99.90
12111;DHT22;6119;52.372;8.990;2023-04-25T12:35:23;10.70;99.90
12111;DHT22;6119;52.372;8.990;2023-04-25T12:38:09;10.80;99.90
12111;DHT22;6119;52.372;8.990;2023-04-25T12:40:57;10.90;99.90
12111;DHT22;6119;52.372;8.990;2023-04-25T12:43:43;10.70;99.90
12111;DHT22;6119;52.372;8.990;2023-04-25T12:46:30;10.90;99.90
12111;DHT22;6119;52.372;8.990;2023-04-25T12:49:18;11.60;99.90
12111;DHT22;6119;52.372;8.990;2023-04-25T12:52:05;11.70;99.90
12111;DHT22;6119;52.372;8.990;2023-04-25T12:54:52;11.60;99.90
12111;DHT22;6119;52.372;8.990;2023-04-25T12:57:38;11.90;99.90
12111;DHT22;6119;52.372;8.990;2023-04-25T13:00:25;11.70;98.00
12111;DHT22;6119;52.372;8.990;2023-04-25T13:03:12;12.10;97.70
12111;DHT22;6119;52.372;8.990;2023-04-25T13:06:01;11.70;97.40
12111;DHT22;6119;52.372;8.990;2023-04-25T13:08:47;11.70;96.80
12111;DHT22;6119;52.372;8.990;2023-04-25T13:11:35;11.40;97.00
12111;DHT22;6119;52.372;8.990;2023-04-25T13:14:21;11.20;95.90
12111;DHT22;6119;52.372;8.990;2023-04-25T13:17:08;11.10;97.80
12111;DHT22;6119;52.372;8.990;2023-04-25T13:19:54;11.10;97.50
12111;DHT22;6119;52.372;8.990;2023-04-25T13:22:42;11.40;98.60
12111;DHT22;6119;52.372;8.990;2023-04-25T13:25:31;11.40;98.70
12111;DHT22;6119;52.372;8.990;2023-04-25T13:28:17;11.30;98.30
12111;DHT22;6119;52.372;8.990;2023-04-25T13:31:04;10.60;98.80
12111;DHT22;6119;52.372;8.990;2023-04-25T13:33:51;10.50;99.50
12111;DHT22;6119;52.372;8.990;2023-04-25T13:36:38;10.60;99.20
12111;DHT22;6119;52.372;8.990;2023-04-25T13:39:26;10.70;99.90
12111;DHT22;6119;52.372;8.990;2023-04-25T13:42:12;10.90;99.10
12111;DHT22;6119;52.372;8.990;2023-04-25T13:44:59;11.30;98.00
12111;DHT22;6119;52.372;8.990;2023-04-25T13:47:46;11.50;99.20
12111;DHT22;6119;52.372;8.990;2023-04-25T13:50:33;12.40;98.00
12111;DHT22;6119;52.372;8.990;2023-04-25T13:53:20;12.40;97.40
12111;DHT22;6119;52.372;8.990;2023-04-25T13:56:08;12.50;95.40
12111;DHT22;6119;52.372;8.990;2023-04-25T13:58:56;12.90;94.50
12111;DHT22;6119;52.372;8.990;2023-04-25T14:01:43;12.50;92.20
12111;DHT22;6119;52.372;8.990;2023-04-25T14:04:30;11.90;90.60
12111;DHT22;6119;52.372;8.990;2023-04-25T14:07:18;12.20;92.20
12111;DHT22;6119;52.372;8.990;2023-04-25T14:10:06;12.20;91.50
12111;DHT22;6119;52.372;8.990;2023-04-25T14:12:54;11.90;91.70
12111;DHT22;6119;52.372;8.990;2023-04-25T14:15:41;11.60;92.90
12111;DHT22;6119;52.372;8.990;2023-04-25T14:18:28;11.20;94.00
12111;DHT22;6119;52.372;8.990;2023-04-25T14:21:14;11.20;94.70
12111;DHT22;6119;52.372;8.990;2023-04-25T14:24:01;11.50;94.10
12111;DHT22;6119;52.372;8.990;2023-04-25T14:26:48;12.10;93.90
12111;DHT22;6119;52.372;8.990;2023-04-25T14:29:36;12.60;93.70
12111;DHT22;6119;52.372;8.990;2023-04-25T14:32:22;13.00;93.10
12111;DHT22;6119;52.372;8.990;2023-04-25T14:35:09;12.80;92.20
12111;DHT22;6119;52.372;8.990;2023-04-25T14:37:55;12.20;93.10
12111;DHT22;6119;52.372;8.990;2023-04-25T14:40:41;12.80;93.40
12111;DHT22;6119;52.372;8.990;2023-04-25T14:43:28;12.80;93.90
12111;DHT22;6119;52.372;8.990;2023-04-25T14:46:16;12.60;93.70
12111;DHT22;6119;52.372;8.990;2023-04-25T14:49:03;12.50;94.00
12111;DHT22;6119;52.372;8.990;2023-04-25T14:51:50;11.70;93.10
12111;DHT22;6119;52.372;8.990;2023-04-25T14:54:36;11.80;93.80
12111;DHT22;6119;52.372;8.990;2023-04-25T14:57:22;11.80;94.40
12111;DHT22;6119;52.372;8.990;2023-04-25T15:00:10;11.90;95.60
12111;DHT22;6119;52.372;8.990;2023-04-25T15:03:03;10.50;97.80
12111;DHT22;6119;52.372;8.990;2023-04-25T15:05:51;10.10;99.90
12111;DHT22;6119;52.372;8.990;2023-04-25T15:08:38;9.70;99.90
12111;DHT22;6119;52.372;8.990;2023-04-25T15:11:24;9.70;99.90
12111;DHT22;6119;52.372;8.990;2023-04-25T15:14:11;10.10;99.90
12111;DHT22;6119;52.372;8.990;2023-04-25T15:16:57;10.20;99.90
12111;DHT22;6119;52.372;8.990;2023-04-25T15:19:46;10.20;99.90
12111;DHT22;6119;52.372;8.990;2023-04-25T15:22:32;10.20;99.90
12111;DHT22;6119;52.372;8.990;2023-04-25T15:25:19;10.20;99.90
12111;DHT22;6119;52.372;8.990;2023-04-25T15:28:06;10.70;99.90
12111;DHT22;6119;52.372;8.990;2023-04-25T15:30:53;10.90;99.90
12111;DHT22;6119;52.372;8.990;2023-04-25T15:33:39;10.90;99.90
12111;DHT22;6119;52.372;8.990;2023-04-25T15:36:27;11.30;99.90
12111;DHT22;6119;52.372;8.990;2023-04-25T15:39:14;11.20;99.90
12111;DHT22;6119;52.372;8.990;2023-04-25T15:42:02;11.30;99.90
12111;DHT22;6119;52.372;8.990;2023-04-25T15:44:48;11.70;99.90
12111;DHT22;6119;52.372;8.990;2023-04-25T15:47:36;11.90;99.90
12111;DHT22;6119;52.372;8.990;2023-04-25T15:50:24;11.80;99.90
12111;DHT22;6119;52.372;8.990;2023-04-25T15:53:12;11.80;99.90
12111;DHT22;6119;52.372;8.990;2023-04-25T15:55:59;11.30;99.50
12111;DHT22;6119;52.372;8.990;2023-04-25T15:58:46;11.20;99.80
12111;DHT22;6119;52.372;8.990;2023-04-25T16:01:32;10.90;99.90
12111;DHT22;6119;52.372;8.990;2023-04-25T16:04:19;10.60;99.90
12111;DHT22;6119;52.372;8.990;2023-04-25T16:07:06;10.20;99.90
12111;DHT22;6119;52.372;8.990;2023-04-25T16:09:54;10.40;99.90
12111;DHT22;6119;52.372;8.990;2023-04-25T16:12:41;9.90;99.90
12111;DHT22;6119;52.372;8.990;2023-04-25T16:15:28;9.40;99.90
12111;DHT22;6119;52.372;8.990;2023-04-25T16:18:19;9.10;99.90
12111;DHT22;6119;52.372;8.990;2023-04-25T16:21:06;9.10;99.90
12111;DHT22;6119;52.372;8.990;2023-04-25T16:23:53;9.30;99.90
12111;DHT22;6119;52.372;8.990;2023-04-25T16:26:41;9.10;99.90
12111;DHT22;6119;52.372;8.990;2023-04-25T16:29:29;9.10;99.90
12111;DHT22;6119;52.372;8.990;2023-04-25T16:32:15;9.20;99.90
12111;DHT22;6119;52.372;8.990;2023-04-25T16:35:02;9.00;99.90
12111;DHT22;6119;52.372;8.990;2023-04-25T16:37:49;9.20;99.90
12111;DHT22;6119;52.372;8.990;2023-04-25T16:40:36;9.30;99.90
12111;DHT22;6119;52.372;8.990;2023-04-25T16:43:24;9.50;99.90
12111;DHT22;6119;52.372;8.990;2023-04-25T16:46:11;9.50;99.90
12111;DHT22;6119;52.372;8.990;2023-04-25T16:48:58;9.30;99.90
12111;DHT22;6119;52.372;8.990;2023-04-25T16:51:45;9.30;99.90
12111;DHT22;6119;52.372;8.990;2023-04-25T16:54:32;9.20;99.90
12111;DHT22;6119;52.372;8.990;2023-04-25T16:57:19;9.20;99.90
12111;DHT22;6119;52.372;8.990;2023-04-25T17:00:08;9.10;99.90
12111;DHT22;6119;52.372;8.990;2023-04-25T17:02:54;8.90;99.90
12111;DHT22;6119;52.372;8.990;2023-04-25T17:05:41;8.80;99.90
12111;DHT22;6119;52.372;8.990;2023-04-25T17:08:28;8.90;99.90
12111;DHT22;6119;52.372;8.990;2023-04-25T17:11:14;8.90;99.90
12111;DHT22;6119;52.372;8.990;2023-04-25T17:14:01;8.80;99.90
12111;DHT22;6119;52.372;8.990;2023-04-25T17:16:49;9.40;99.90
12111;DHT22;6119;52.372;8.990;2023-04-25T17:19:35;9.30;99.90
12111;DHT22;6119;52.372;8.990;2023-04-25T17:22:23;9.70;99.90
12111;DHT22;6119;52.372;8.990;2023-04-25T17:25:10;10.30;99.90
12111;DHT22;6119;52.372;8.990;2023-04-25T17:27:56;10.60;99.90
12111;DHT22;6119;52.372;8.990;2023-04-25T17:30:43;10.20;99.90
12111;DHT22;6119;52.372;8.990;2023-04-25T17:33:31;10.10;99.90
12111;DHT22;6119;52.372;8.990;2023-04-25T17:36:17;9.70;99.90
12111;DHT22;6119;52.372;8.990;2023-04-25T17:39:05;9.80;99.90
12111;DHT22;6119;52.372;8.990;2023-04-25T17:41:52;9.40;99.90
12111;DHT22;6119;52.372;8.990;2023-04-25T17:44:39;9.40;99.90
12111;DHT22;6119;52.372;8.990;2023-04-25T17:47:26;9.50;99.90
12111;DHT22;6119;52.372;8.990;2023-04-25T17:50:13;9.40;99.90
12111;DHT22;6119;52.372;8.990;2023-04-25T17:53:01;9.40;99.90
12111;DHT22;6119;52.372;8.990;2023-04-25T17:55:48;9.30;99.90
12111;DHT22;6119;52.372;8.990;2023-04-25T17:58:35;9.50;99.90
12111;DHT22;6119;52.372;8.990;2023-04-25T18:01:21;9.60;99.90
12111;DHT22;6119;52.372;8.990;2023-04-25T18:04:08;9.30;99.90
12111;DHT22;6119;52.372;8.990;2023-04-25T18:06:56;9.40;99.90